首页
METAR-TAF:

METAR-TAF

机场 :

伊瓜苏, 巴拉那州, 巴西

纬度: 25-31S, 经度: 054-35W, 海拔: 180米

当前天气观测

该预报发布于28分钟前的19:00 UTC
风速6节,风向
温度 29°C
湿度 43%
气压 1017 hPa
能见度10公里或以上
1500米以下无云,无积雨云

METAR: SBFI 241900Z 09006KT CAVOK 29/15 Q1017

时间: 16:28 (19:28 UTC)

预报

该预报发布于4小时和28分钟前的15:00 UTC
预报有效从24日的 18点(UTC)到 25日的 18点(UTC)
风速5节,风向
能见度10公里或以上
1500米以下无云,无积雨云

TAF: SBFI 241500Z 2418/2518 09005KT CAVOK TN17/2508Z TX28/2517Z RMK PDY

超过4000个机场的气象观测和天气预报(METAR&TAF报告)。

可查询的气象台以黄色和红色小点在地图上表示。

将鼠标移到小点上方,可查看气象台名称。

然后点击查看天气观测和预报。

如需切换地图:点击带黑十字的绿色按钮放大地图;点击带横线的绿色按钮缩小地图;或者点击绿色箭头查看邻近地区的地图。


METAR-TAF: